Time;durP1;ratioP1;P1;durP2;ratioP2;P2;SDS_P1;SDS_P2;PMS_P1;PMS_P2;Temp;Humidity;BMP_temperature;BMP_pressure;BME280_temperature;BME280_humidity;BME280_pressure;Samples;Min_cycle;Max_cycle;Signal;HPM_P1;HPM_P2
2023/06/19 00:01:39;;;;;;;;;5.00;4.75;;;;;;;;5050769;28;45864;-80
2023/06/19 00:04:04;;;;;;;;;5.50;5.00;;;;;;;;5030619;28;47373;-81
2023/06/19 00:06:30;;;;;;;;;3.00;3.00;;;;;;;;5052124;28;45953;-80
2023/06/19 00:08:55;;;;;;;;;5.67;4.67;;;;;;;;5053726;28;45701;-81
2023/06/19 00:11:20;;;;;;;;;6.00;6.00;;;;;;;;5035105;28;46926;-79
2023/06/19 00:13:46;;;;;;;;;6.00;4.25;;;;;;;;5036218;28;48031;-80
2023/06/19 00:16:11;;;;;;;;;4.75;3.75;;;;;;;;5038420;28;45341;-81
2023/06/19 00:18:39;;;;;;;;;5.25;5.25;;;;;;;;5052881;28;45672;-79
2023/06/19 00:21:06;;;;;;;;;5.75;5.75;;;;;;;;5048045;28;46055;-80
2023/06/19 00:23:31;;;;;;;;;4.50;4.50;;;;;;;;5018837;28;47249;-79
2023/06/19 00:25:56;;;;;;;;;5.00;4.50;;;;;;;;5032742;28;45429;-79
2023/06/19 00:28:21;;;;;;;;;8.50;7.25;;;;;;;;5040420;28;45528;-79
2023/06/19 00:30:47;;;;;;;;;5.75;5.50;;;;;;;;5038485;28;45852;-81
2023/06/19 00:33:12;;;;;;;;;7.75;7.25;;;;;;;;5047644;28;46231;-80
2023/06/19 00:35:37;;;;;;;;;7.33;6.33;;;;;;;;5036211;28;45763;-77
2023/06/19 00:38:03;;;;;;;;;8.33;7.33;;;;;;;;5056231;28;45860;-79
2023/06/19 00:40:29;;;;;;;;;3.33;2.00;;;;;;;;5056338;28;45627;-80
2023/06/19 00:42:57;;;;;;;;;6.67;6.67;;;;;;;;5031984;28;47260;-80
2023/06/19 00:45:26;;;;;;;;;8.67;7.00;;;;;;;;5033106;28;45493;-79
2023/06/19 00:47:52;;;;;;;;;8.00;6.33;;;;;;;;5050902;28;45918;-79
2023/06/19 00:50:17;;;;;;;;;5.33;5.33;;;;;;;;5051801;28;45511;-79
2023/06/19 00:52:43;;;;;;;;;7.00;5.67;;;;;;;;5049778;28;45453;-80
2023/06/19 00:55:09;;;;;;;;;6.00;3.00;;;;;;;;5052062;28;45381;-79
2023/06/19 00:57:35;;;;;;;;;6.67;6.00;;;;;;;;5047108;28;45762;-79
2023/06/19 01:00:00;;;;;;;;;8.33;7.33;;;;;;;;5049838;28;45834;-79
2023/06/19 01:02:26;;;;;;;;;8.33;8.33;;;;;;;;5054272;28;47070;-80
2023/06/19 01:04:54;;;;;;;;;8.00;6.33;;;;;;;;5059981;28;45505;-82
2023/06/19 01:07:25;;;;;;;;;7.67;6.00;;;;;;;;5052124;28;45848;-80
2023/06/19 01:09:56;;;;;;;;;9.33;9.00;;;;;;;;5053817;28;45839;-79
2023/06/19 01:12:26;;;;;;;;;7.25;5.75;;;;;;;;5054158;28;46593;-80
2023/06/19 01:14:57;;;;;;;;;11.67;8.67;;;;;;;;5035713;28;45442;-78
2023/06/19 01:17:23;;;;;;;;;6.67;6.33;;;;;;;;5053693;28;45723;-81
2023/06/19 01:19:48;;;;;;;;;5.50;5.50;;;;;;;;5054126;28;45523;-79
2023/06/19 01:22:27;;;;;;;;;10.33;8.67;;;;;;;;5049807;28;46555;-79
2023/06/19 01:24:52;;;;;;;;;10.00;8.33;;;;;;;;5045479;28;45434;-79
2023/06/19 01:27:17;;;;;;;;;10.67;8.33;;;;;;;;5053289;28;45670;-80
2023/06/19 01:29:43;;;;;;;;;8.67;8.67;;;;;;;;5042744;28;46414;-80
2023/06/19 01:32:15;;;;;;;;;8.00;8.00;;;;;;;;5064000;28;46128;-80
2023/06/19 01:34:41;;;;;;;;;6.00;6.00;;;;;;;;5055528;28;45427;-81
2023/06/19 01:37:08;;;;;;;;;7.25;6.50;;;;;;;;5054879;28;45443;-78
2023/06/19 01:39:33;;;;;;;;;7.25;5.25;;;;;;;;5052700;28;45774;-80
2023/06/19 01:41:59;;;;;;;;;6.00;6.00;;;;;;;;5050412;28;46797;-80
2023/06/19 01:44:24;;;;;;;;;10.00;8.33;;;;;;;;5040894;28;45366;-80
2023/06/19 01:46:50;;;;;;;;;10.33;9.67;;;;;;;;5056469;28;45619;-79
2023/06/19 01:49:16;;;;;;;;;6.75;6.75;;;;;;;;5035709;28;45704;-79
2023/06/19 01:51:41;;;;;;;;;7.33;7.33;;;;;;;;5053521;28;46640;-80
2023/06/19 01:54:07;;;;;;;;;11.00;9.00;;;;;;;;5034629;28;45829;-79
2023/06/19 01:56:32;;;;;;;;;9.33;9.33;;;;;;;;5034732;28;45776;-79
2023/06/19 01:58:57;;;;;;;;;9.33;8.33;;;;;;;;5035579;28;45888;-80
2023/06/19 02:01:23;;;;;;;;;9.00;8.33;;;;;;;;5053793;28;45754;-78
2023/06/19 02:03:48;;;;;;;;;9.00;9.00;;;;;;;;5053980;28;45735;-79
2023/06/19 02:06:13;;;;;;;;;9.33;8.67;;;;;;;;5053299;28;45643;-80
2023/06/19 02:08:38;;;;;;;;;10.33;9.33;;;;;;;;5053409;28;45783;-79
2023/06/19 02:11:04;;;;;;;;;12.67;10.33;;;;;;;;5054545;28;45816;-78
2023/06/19 02:13:29;;;;;;;;;11.00;9.00;;;;;;;;5053324;28;45419;-78
2023/06/19 02:15:54;;;;;;;;;14.33;10.67;;;;;;;;5060739;28;45440;-79
2023/06/19 02:18:20;;;;;;;;;11.00;11.00;;;;;;;;5038199;28;46085;-78
2023/06/19 02:20:45;;;;;;;;;12.67;8.33;;;;;;;;5053533;28;45446;-78
2023/06/19 02:23:10;;;;;;;;;8.33;8.00;;;;;;;;5053588;28;45522;-79
2023/06/19 02:25:36;;;;;;;;;12.33;9.67;;;;;;;;5053521;28;45415;-79
2023/06/19 02:28:01;;;;;;;;;10.67;9.33;;;;;;;;5053778;28;45695;-79
2023/06/19 02:30:27;;;;;;;;;17.67;11.67;;;;;;;;5053741;28;45778;-78
2023/06/19 02:32:52;;;;;;;;;10.33;9.33;;;;;;;;5053599;28;45498;-80
2023/06/19 02:35:17;;;;;;;;;8.33;8.33;;;;;;;;5052864;28;45604;-81
2023/06/19 02:37:42;;;;;;;;;13.00;10.33;;;;;;;;5034546;28;46816;-79
2023/06/19 02:40:09;;;;;;;;;11.00;9.33;;;;;;;;5034935;28;46849;-80
2023/06/19 02:42:35;;;;;;;;;11.33;11.33;;;;;;;;5053628;28;45830;-81
2023/06/19 02:45:03;;;;;;;;;10.33;8.67;;;;;;;;5035376;28;45378;-78
2023/06/19 02:47:32;;;;;;;;;12.00;9.33;;;;;;;;5035546;28;46003;-80
2023/06/19 02:49:58;;;;;;;;;10.67;10.33;;;;;;;;5053608;28;45505;-79
2023/06/19 02:52:23;;;;;;;;;11.00;9.00;;;;;;;;5053224;28;45646;-80
2023/06/19 02:54:48;;;;;;;;;9.00;7.00;;;;;;;;5053392;28;45424;-80
2023/06/19 02:57:13;;;;;;;;;12.33;11.33;;;;;;;;5034523;28;45802;-79
2023/06/19 02:59:38;;;;;;;;;9.33;8.67;;;;;;;;5033568;28;46881;-79
2023/06/19 03:02:04;;;;;;;;;9.67;9.67;;;;;;;;5052620;28;45395;-81
2023/06/19 03:04:29;;;;;;;;;11.33;10.67;;;;;;;;5034075;28;45676;-80
2023/06/19 03:06:54;;;;;;;;;11.67;9.67;;;;;;;;5053237;28;45699;-79
2023/06/19 03:09:20;;;;;;;;;12.33;10.33;;;;;;;;5052340;28;45693;-81
2023/06/19 03:11:45;;;;;;;;;12.33;9.33;;;;;;;;5052641;28;45842;-80
2023/06/19 03:14:10;;;;;;;;;8.67;8.00;;;;;;;;5052362;28;45710;-79
2023/06/19 03:16:36;;;;;;;;;12.33;12.33;;;;;;;;5052253;28;45439;-79
2023/06/19 03:19:01;;;;;;;;;9.67;9.67;;;;;;;;5052250;28;46063;-78
2023/06/19 03:21:27;;;;;;;;;8.33;8.33;;;;;;;;5034107;28;46729;-80
2023/06/19 03:23:52;;;;;;;;;10.67;10.00;;;;;;;;5033952;28;45778;-79
2023/06/19 03:26:21;;;;;;;;;12.33;10.33;;;;;;;;5033431;28;45716;-81
2023/06/19 03:28:47;;;;;;;;;10.67;9.67;;;;;;;;5051945;28;45968;-79
2023/06/19 03:31:12;;;;;;;;;14.00;11.00;;;;;;;;5052430;28;45546;-80
2023/06/19 03:33:37;;;;;;;;;10.33;9.67;;;;;;;;5050787;28;45720;-79
2023/06/19 03:36:03;;;;;;;;;13.00;9.67;;;;;;;;5050576;28;45714;-79
2023/06/19 03:38:28;;;;;;;;;10.33;9.00;;;;;;;;5052656;28;46005;-79
2023/06/19 03:40:54;;;;;;;;;9.00;7.00;;;;;;;;5052344;28;45388;-80
2023/06/19 03:43:19;;;;;;;;;12.00;10.33;;;;;;;;5052402;28;45682;-78
2023/06/19 03:45:44;;;;;;;;;12.33;11.67;;;;;;;;5052962;28;45376;-80
2023/06/19 03:48:10;;;;;;;;;11.00;10.00;;;;;;;;5034463;28;48139;-80
2023/06/19 03:50:35;;;;;;;;;15.00;10.67;;;;;;;;5025880;28;45510;-79
2023/06/19 03:53:00;;;;;;;;;10.33;6.00;;;;;;;;5036877;28;45428;-80
2023/06/19 03:55:26;;;;;;;;;13.33;12.33;;;;;;;;5052555;28;45666;-79
2023/06/19 03:57:52;;;;;;;;;13.00;10.00;;;;;;;;5052853;28;45400;-78
2023/06/19 04:00:18;;;;;;;;;12.33;10.33;;;;;;;;5028760;28;45727;-80
2023/06/19 04:02:45;;;;;;;;;11.33;11.00;;;;;;;;5042220;28;45663;-80
2023/06/19 04:05:11;;;;;;;;;11.00;11.00;;;;;;;;5033961;28;46449;-80
2023/06/19 04:07:36;;;;;;;;;13.33;9.67;;;;;;;;5053341;28;46043;-80
2023/06/19 04:10:02;;;;;;;;;13.00;10.67;;;;;;;;5057474;28;45381;-81
2023/06/19 04:12:27;;;;;;;;;12.00;12.00;;;;;;;;5035929;28;45786;-80
2023/06/19 04:14:52;;;;;;;;;10.33;10.33;;;;;;;;5051881;28;45962;-80
2023/06/19 04:17:17;;;;;;;;;18.00;15.00;;;;;;;;5054881;28;45921;-80
2023/06/19 04:19:43;;;;;;;;;14.33;11.00;;;;;;;;5043241;28;45597;-82
2023/06/19 04:22:08;;;;;;;;;11.33;11.33;;;;;;;;5049192;28;45735;-80
2023/06/19 04:24:34;;;;;;;;;11.00;11.00;;;;;;;;5040637;28;45734;-79
2023/06/19 04:26:59;;;;;;;;;15.00;12.67;;;;;;;;5051483;28;45973;-78
2023/06/19 04:29:25;;;;;;;;;17.67;16.00;;;;;;;;5062800;28;45544;-79
2023/06/19 04:31:50;;;;;;;;;17.67;17.00;;;;;;;;5052378;28;45504;-80
2023/06/19 04:34:16;;;;;;;;;18.67;16.00;;;;;;;;5052959;28;45536;-81
2023/06/19 04:36:41;;;;;;;;;15.00;11.67;;;;;;;;5034833;28;48100;-81
2023/06/19 04:39:07;;;;;;;;;11.33;9.33;;;;;;;;5032860;28;45653;-78
2023/06/19 04:41:32;;;;;;;;;15.33;13.67;;;;;;;;5049460;28;45565;-81
2023/06/19 04:43:57;;;;;;;;;13.67;13.67;;;;;;;;5045674;28;45537;-79
2023/06/19 04:46:22;;;;;;;;;12.33;9.33;;;;;;;;5051188;28;45963;-79
2023/06/19 04:48:50;;;;;;;;;25.00;21.67;;;;;;;;5051649;28;45418;-79
2023/06/19 04:51:19;;;;;;;;;17.33;14.67;;;;;;;;5023999;28;45410;-80
2023/06/19 04:53:45;;;;;;;;;22.00;22.00;;;;;;;;5046300;28;46368;-81
2023/06/19 04:56:10;;;;;;;;;13.33;13.33;;;;;;;;5023582;28;46042;-79
2023/06/19 04:58:35;;;;;;;;;18.33;15.67;;;;;;;;5044481;28;45132;-79
2023/06/19 05:01:01;;;;;;;;;16.00;15.67;;;;;;;;5036201;28;45424;-79
2023/06/19 05:03:26;;;;;;;;;17.33;16.33;;;;;;;;5052928;28;45527;-79
2023/06/19 05:05:54;;;;;;;;;18.67;17.00;;;;;;;;5032660;28;45986;-79
2023/06/19 05:08:19;;;;;;;;;12.67;12.00;;;;;;;;5033414;28;45429;-81
2023/06/19 05:10:44;;;;;;;;;17.33;14.67;;;;;;;;5050935;28;45760;-79
2023/06/19 05:13:09;;;;;;;;;14.00;14.00;;;;;;;;5048473;28;45594;-80
2023/06/19 05:15:35;;;;;;;;;13.00;12.00;;;;;;;;5050481;28;45927;-81
2023/06/19 05:18:00;;;;;;;;;13.67;12.33;;;;;;;;5050924;28;45576;-82
2023/06/19 05:20:25;;;;;;;;;16.67;13.67;;;;;;;;5033307;28;46086;-79
2023/06/19 05:22:50;;;;;;;;;16.67;15.67;;;;;;;;5051511;28;45979;-81
2023/06/19 05:25:15;;;;;;;;;14.33;12.67;;;;;;;;5051231;28;45714;-77
2023/06/19 05:27:41;;;;;;;;;16.00;12.33;;;;;;;;5050301;28;45406;-79
2023/06/19 05:30:06;;;;;;;;;15.67;13.33;;;;;;;;5051006;28;45443;-79
2023/06/19 05:32:32;;;;;;;;;11.25;11.25;;;;;;;;5055971;28;45356;-80
2023/06/19 05:34:57;;;;;;;;;11.33;10.67;;;;;;;;5033302;28;47025;-80
2023/06/19 05:37:22;;;;;;;;;10.67;10.67;;;;;;;;5058278;28;45882;-78
2023/06/19 05:39:48;;;;;;;;;15.00;14.00;;;;;;;;5050160;28;45501;-79
2023/06/19 05:42:13;;;;;;;;;13.67;12.33;;;;;;;;5038000;28;45881;-80
2023/06/19 05:44:42;;;;;;;;;13.00;13.00;;;;;;;;5051754;28;45726;-81
2023/06/19 05:47:07;;;;;;;;;13.67;13.33;;;;;;;;5043381;28;45783;-80
2023/06/19 05:49:32;;;;;;;;;7.67;7.67;;;;;;;;5034541;28;45846;-78
2023/06/19 05:51:58;;;;;;;;;15.67;13.67;;;;;;;;5053383;28;45819;-79
2023/06/19 05:54:24;;;;;;;;;11.67;11.67;;;;;;;;5052666;28;45887;-83
2023/06/19 05:56:50;;;;;;;;;14.00;13.67;;;;;;;;5033320;28;46721;-80
2023/06/19 05:59:15;;;;;;;;;17.00;14.67;;;;;;;;5058888;28;45534;-83
2023/06/19 06:01:41;;;;;;;;;13.67;11.67;;;;;;;;5041443;28;46180;-81
2023/06/19 06:04:06;;;;;;;;;11.75;11.00;;;;;;;;5061340;28;45574;-82
2023/06/19 06:06:31;;;;;;;;;13.50;11.00;;;;;;;;5036256;28;45745;-80
2023/06/19 06:08:57;;;;;;;;;14.75;12.25;;;;;;;;5055046;28;45375;-82
2023/06/19 06:11:23;;;;;;;;;14.50;13.00;;;;;;;;5037581;28;46350;-84
2023/06/19 06:13:48;;;;;;;;;14.00;12.25;;;;;;;;5036949;28;46178;-82
2023/06/19 06:16:14;;;;;;;;;13.00;11.75;;;;;;;;5044647;28;45468;-80
2023/06/19 06:18:39;;;;;;;;;14.75;10.75;;;;;;;;5041449;28;45924;-80
2023/06/19 06:21:04;;;;;;;;;12.25;9.75;;;;;;;;5042359;28;45682;-82
2023/06/19 06:23:30;;;;;;;;;10.75;10.75;;;;;;;;5041110;28;48087;-80
2023/06/19 06:26:04;;;;;;;;;12.00;9.75;;;;;;;;5062940;28;45406;-84
2023/06/19 06:28:31;;;;;;;;;11.25;11.00;;;;;;;;5046518;28;45823;-82
2023/06/19 06:30:56;;;;;;;;;14.75;11.75;;;;;;;;5044830;28;45949;-79
2023/06/19 06:33:22;;;;;;;;;13.50;12.50;;;;;;;;5048370;28;46418;-78
2023/06/19 06:35:47;;;;;;;;;14.25;12.50;;;;;;;;5055070;28;45615;-82
2023/06/19 06:38:12;;;;;;;;;14.50;13.50;;;;;;;;5053520;28;45892;-81
2023/06/19 06:40:38;;;;;;;;;13.25;10.25;;;;;;;;5056065;28;45457;-81
2023/06/19 06:43:03;;;;;;;;;13.00;13.00;;;;;;;;5040189;28;47308;-82
2023/06/19 06:45:28;;;;;;;;;12.75;11.25;;;;;;;;5054021;28;45600;-79
2023/06/19 06:47:53;;;;;;;;;13.50;13.50;;;;;;;;5057663;28;45707;-80
2023/06/19 06:50:19;;;;;;;;;10.25;9.75;;;;;;;;5057312;28;45860;-79
2023/06/19 06:52:44;;;;;;;;;11.75;10.75;;;;;;;;5050452;28;45379;-78
2023/06/19 06:55:10;;;;;;;;;14.25;11.25;;;;;;;;5060398;28;45501;-80
2023/06/19 06:57:35;;;;;;;;;11.25;9.75;;;;;;;;5050167;28;45755;-81
2023/06/19 07:00:01;;;;;;;;;8.75;8.50;;;;;;;;5041133;28;45797;-82
2023/06/19 07:02:26;;;;;;;;;8.50;8.50;;;;;;;;5056926;28;45505;-79
2023/06/19 07:04:52;;;;;;;;;10.50;10.50;;;;;;;;5034918;28;46088;-79
2023/06/19 07:07:17;;;;;;;;;14.25;12.50;;;;;;;;5057097;28;46730;-80
2023/06/19 07:09:43;;;;;;;;;13.00;11.75;;;;;;;;5034626;28;45448;-79
2023/06/19 07:12:12;;;;;;;;;11.50;10.25;;;;;;;;5053830;28;45629;-79
2023/06/19 07:14:37;;;;;;;;;12.00;10.75;;;;;;;;5047133;28;45620;-80
2023/06/19 07:17:03;;;;;;;;;13.25;11.75;;;;;;;;5047068;28;45476;-80
2023/06/19 07:19:29;;;;;;;;;11.25;11.25;;;;;;;;5053106;28;45597;-81
2023/06/19 07:21:54;;;;;;;;;12.00;12.00;;;;;;;;5053533;28;46732;-81
2023/06/19 07:24:20;;;;;;;;;12.75;10.75;;;;;;;;5035395;28;45891;-78
2023/06/19 07:26:46;;;;;;;;;12.00;12.00;;;;;;;;5063046;28;45739;-81
2023/06/19 07:29:12;;;;;;;;;11.25;11.25;;;;;;;;5062264;28;45549;-78
2023/06/19 07:31:37;;;;;;;;;13.75;11.50;;;;;;;;5047006;28;45790;-79
2023/06/19 07:34:02;;;;;;;;;12.75;11.75;;;;;;;;5052458;28;45496;-80
2023/06/19 07:36:28;;;;;;;;;16.75;14.25;;;;;;;;5047126;28;45911;-80
2023/06/19 07:38:55;;;;;;;;;11.75;10.50;;;;;;;;5035463;28;46497;-80
2023/06/19 07:41:20;;;;;;;;;12.00;11.25;;;;;;;;5053687;28;45435;-80
2023/06/19 07:43:45;;;;;;;;;11.50;10.75;;;;;;;;5043736;28;45456;-79
2023/06/19 07:46:15;;;;;;;;;9.25;9.25;;;;;;;;5057606;28;45624;-78
2023/06/19 07:48:40;;;;;;;;;11.75;11.75;;;;;;;;5044416;28;45801;-82
2023/06/19 07:51:06;;;;;;;;;10.25;9.00;;;;;;;;5052840;28;46157;-79
2023/06/19 07:53:31;;;;;;;;;13.50;12.00;;;;;;;;5035772;28;45633;-80
2023/06/19 07:55:56;;;;;;;;;12.25;12.25;;;;;;;;5054099;28;45660;-79
2023/06/19 07:58:22;;;;;;;;;14.25;12.00;;;;;;;;5058224;28;45446;-79
2023/06/19 08:00:47;;;;;;;;;9.25;9.25;;;;;;;;5063641;28;46499;-80
2023/06/19 08:03:12;;;;;;;;;13.25;13.25;;;;;;;;5061308;28;45540;-78
2023/06/19 08:05:38;;;;;;;;;14.25;11.25;;;;;;;;5057823;28;46128;-79
2023/06/19 08:08:03;;;;;;;;;9.25;9.25;;;;;;;;5039515;28;45947;-80
2023/06/19 08:10:28;;;;;;;;;13.00;13.00;;;;;;;;5055825;28;46817;-80
2023/06/19 08:12:54;;;;;;;;;15.00;14.00;;;;;;;;5054486;28;45583;-80
2023/06/19 08:15:19;;;;;;;;;12.75;12.75;;;;;;;;5042870;28;45780;-82
2023/06/19 08:17:44;;;;;;;;;16.75;14.00;;;;;;;;5038751;28;46932;-83
2023/06/19 08:20:10;;;;;;;;;10.50;10.50;;;;;;;;5055348;28;45621;-80
2023/06/19 08:22:35;;;;;;;;;12.25;12.25;;;;;;;;5063087;28;45711;-81
2023/06/19 08:25:01;;;;;;;;;16.50;15.00;;;;;;;;5053993;28;45613;-82
2023/06/19 08:27:27;;;;;;;;;15.75;13.75;;;;;;;;5043371;28;45931;-80
2023/06/19 08:29:52;;;;;;;;;19.75;16.50;;;;;;;;5059542;28;47691;-81
2023/06/19 08:32:17;;;;;;;;;14.50;10.75;;;;;;;;5050150;28;46655;-81
2023/06/19 08:34:43;;;;;;;;;11.25;11.25;;;;;;;;5034461;28;45872;-79
2023/06/19 08:37:09;;;;;;;;;7.50;7.25;;;;;;;;5052764;28;46064;-81
2023/06/19 08:39:37;;;;;;;;;10.50;9.00;;;;;;;;5054986;28;45678;-79
2023/06/19 08:42:03;;;;;;;;;13.25;13.25;;;;;;;;5055750;28;45812;-80
2023/06/19 08:44:29;;;;;;;;;14.25;14.00;;;;;;;;5058813;28;45509;-80
2023/06/19 08:46:54;;;;;;;;;12.50;12.50;;;;;;;;5054620;28;45632;-80
2023/06/19 08:49:19;;;;;;;;;11.25;10.50;;;;;;;;5042416;28;47431;-79
2023/06/19 08:51:44;;;;;;;;;15.00;14.00;;;;;;;;5037857;28;45692;-80
2023/06/19 08:54:13;;;;;;;;;12.75;11.75;;;;;;;;5051520;28;45709;-80
2023/06/19 08:56:38;;;;;;;;;13.50;11.25;;;;;;;;5039203;28;45837;-79
2023/06/19 08:59:13;;;;;;;;;12.00;9.75;;;;;;;;5063616;28;46181;-83
2023/06/19 09:01:40;;;;;;;;;11.00;10.25;;;;;;;;5059077;28;45458;-79
2023/06/19 09:04:15;;;;;;;;;12.00;9.75;;;;;;;;5035027;28;45604;-82
2023/06/19 09:06:57;;;;;;;;;12.00;10.00;;;;;;;;5063818;28;45675;-81
2023/06/19 09:09:48;;;;;;;;;9.75;9.75;;;;;;;;5046128;28;47963;-80
2023/06/19 09:12:17;;;;;;;;;7.50;7.25;;;;;;;;5015840;28;45732;-80
2023/06/19 09:14:46;;;;;;;;;7.25;7.25;;;;;;;;5052963;28;45895;-78
2023/06/19 09:17:19;;;;;;;;;6.50;6.50;;;;;;;;5059302;28;45338;-80
2023/06/19 09:19:51;;;;;;;;;6.25;6.25;;;;;;;;5051045;28;45752;-80
2023/06/19 09:22:20;;;;;;;;;5.75;5.75;;;;;;;;5051304;28;45968;-81
2023/06/19 09:24:45;;;;;;;;;5.75;5.75;;;;;;;;5051701;28;45763;-81
2023/06/19 09:27:13;;;;;;;;;4.25;4.00;;;;;;;;5054291;28;45787;-79
2023/06/19 09:29:39;;;;;;;;;7.50;7.00;;;;;;;;5056422;28;46036;-83
2023/06/19 09:32:28;;;;;;;;;7.75;5.50;;;;;;;;5064259;28;45525;-79
2023/06/19 09:34:54;;;;;;;;;6.00;6.00;;;;;;;;5040472;28;45891;-81
2023/06/19 09:37:25;;;;;;;;;6.50;4.25;;;;;;;;5060027;28;45851;-79
2023/06/19 09:39:53;;;;;;;;;6.25;6.25;;;;;;;;5054577;28;45615;-76
2023/06/19 09:42:30;;;;;;;;;7.00;7.00;;;;;;;;5035389;28;45820;-83
2023/06/19 09:45:00;;;;;;;;;9.75;9.50;;;;;;;;5055878;28;45728;-81
2023/06/19 09:47:29;;;;;;;;;10.25;7.75;;;;;;;;5063329;28;45576;-80
2023/06/19 09:49:55;;;;;;;;;7.00;7.00;;;;;;;;5043009;28;47316;-80
2023/06/19 09:52:24;;;;;;;;;7.00;7.00;;;;;;;;5063084;28;45736;-80
2023/06/19 09:54:54;;;;;;;;;7.25;6.25;;;;;;;;5064496;28;45873;-81
2023/06/19 09:57:19;;;;;;;;;7.25;6.75;;;;;;;;5046311;28;46074;-81
2023/06/19 09:59:46;;;;;;;;;7.00;6.00;;;;;;;;5067761;28;46689;-81
2023/06/19 10:02:14;;;;;;;;;7.00;6.50;;;;;;;;5059024;28;45584;-81
2023/06/19 10:04:49;;;;;;;;;5.75;5.75;;;;;;;;5053534;28;45567;-82
2023/06/19 10:07:22;;;;;;;;;6.25;6.25;;;;;;;;5049419;28;45887;-83
2023/06/19 10:10:23;;;;;;;;;5.75;5.75;;;;;;;;5055593;28;45494;-80
2023/06/19 10:12:51;;;;;;;;;6.75;6.75;;;;;;;;4967652;28;45752;-81
2023/06/19 10:15:20;;;;;;;;;6.00;6.00;;;;;;;;5025975;28;45557;-85
2023/06/19 10:17:46;;;;;;;;;7.75;7.75;;;;;;;;5063578;28;45359;-86
2023/06/19 10:20:24;;;;;;;;;7.75;7.75;;;;;;;;5047568;28;46742;-82
2023/06/19 10:23:08;;;;;;;;;7.50;6.00;;;;;;;;5053871;28;45443;-84
2023/06/19 10:25:35;;;;;;;;;7.25;6.50;;;;;;;;5058811;28;45929;-81
2023/06/19 10:28:01;;;;;;;;;5.00;5.00;;;;;;;;5046303;28;46034;-82
2023/06/19 10:30:27;;;;;;;;;5.50;5.50;;;;;;;;5058748;28;46620;-83
2023/06/19 10:32:53;;;;;;;;;7.75;6.50;;;;;;;;5067367;28;46400;-80
2023/06/19 10:35:21;;;;;;;;;7.25;6.25;;;;;;;;5054571;28;45455;-83
2023/06/19 10:37:47;;;;;;;;;5.75;5.75;;;;;;;;5038240;28;46794;-81
2023/06/19 10:40:13;;;;;;;;;8.00;7.00;;;;;;;;5031221;28;47790;-81
2023/06/19 10:42:41;;;;;;;;;6.00;6.00;;;;;;;;5039714;28;45502;-80
2023/06/19 10:45:08;;;;;;;;;5.75;5.00;;;;;;;;5048058;27;45537;-81
2023/06/19 10:47:33;;;;;;;;;4.00;4.00;;;;;;;;5054160;28;46316;-82
2023/06/19 10:49:59;;;;;;;;;5.00;4.50;;;;;;;;5044224;28;45442;-82
2023/06/19 10:52:24;;;;;;;;;5.67;5.00;;;;;;;;5032645;28;45857;-81
2023/06/19 10:54:54;;;;;;;;;6.75;6.00;;;;;;;;5048846;28;46038;-82
2023/06/19 10:57:25;;;;;;;;;5.00;5.00;;;;;;;;5053543;28;45504;-84
2023/06/19 10:59:51;;;;;;;;;7.25;7.25;;;;;;;;5050323;28;46845;-81
2023/06/19 11:02:17;;;;;;;;;8.00;5.25;;;;;;;;5053501;28;46557;-83
2023/06/19 11:04:46;;;;;;;;;7.25;6.25;;;;;;;;5031092;28;45931;-82
2023/06/19 11:07:12;;;;;;;;;6.75;6.75;;;;;;;;5053554;28;46196;-82
2023/06/19 11:09:37;;;;;;;;;5.00;4.00;;;;;;;;5055011;28;46497;-81
2023/06/19 11:12:07;;;;;;;;;6.50;5.50;;;;;;;;5061513;28;45727;-84
2023/06/19 11:14:39;;;;;;;;;6.50;6.25;;;;;;;;5052338;28;45463;-80
2023/06/19 11:17:05;;;;;;;;;6.50;6.50;;;;;;;;5055489;28;46225;-81
2023/06/19 11:19:33;;;;;;;;;6.75;6.75;;;;;;;;5061835;28;45950;-84
2023/06/19 11:22:00;;;;;;;;;8.50;7.00;;;;;;;;5064339;28;45794;-83
2023/06/19 11:24:26;;;;;;;;;8.75;6.50;;;;;;;;5054314;28;45608;-83
2023/06/19 11:26:58;;;;;;;;;6.00;6.00;;;;;;;;5045225;28;45737;-82
2023/06/19 11:29:25;;;;;;;;;8.00;7.00;;;;;;;;5043993;28;46725;-83
2023/06/19 11:31:50;;;;;;;;;5.50;5.50;;;;;;;;5037784;28;45696;-82
2023/06/19 11:34:16;;;;;;;;;7.00;7.00;;;;;;;;5033848;28;45741;-83
2023/06/19 11:36:42;;;;;;;;;9.50;9.50;;;;;;;;5035733;28;45969;-81
2023/06/19 11:39:13;;;;;;;;;6.25;6.25;;;;;;;;5035116;28;47021;-81
2023/06/19 11:41:39;;;;;;;;;7.00;7.00;;;;;;;;5039998;28;45613;-81
2023/06/19 11:44:05;;;;;;;;;10.00;10.00;;;;;;;;5040808;28;45937;-80
2023/06/19 11:46:31;;;;;;;;;9.50;6.50;;;;;;;;5036935;28;45767;-80
2023/06/19 11:49:09;;;;;;;;;7.25;7.25;;;;;;;;5042354;28;46471;-81
2023/06/19 11:51:35;;;;;;;;;10.25;8.00;;;;;;;;5043801;28;45759;-82
2023/06/19 11:54:00;;;;;;;;;8.00;6.75;;;;;;;;5041497;28;45530;-82
2023/06/19 11:56:29;;;;;;;;;8.25;7.75;;;;;;;;5044128;28;46379;-80
2023/06/19 11:58:55;;;;;;;;;8.00;8.00;;;;;;;;5040503;28;45544;-82
2023/06/19 12:01:20;;;;;;;;;8.75;7.75;;;;;;;;5037250;28;45387;-81
2023/06/19 12:03:49;;;;;;;;;8.75;8.00;;;;;;;;5038749;28;45520;-86
2023/06/19 12:06:17;;;;;;;;;9.25;8.75;;;;;;;;5043274;28;45742;-81
2023/06/19 12:08:45;;;;;;;;;7.00;7.00;;;;;;;;5034157;28;46414;-82
2023/06/19 12:11:20;;;;;;;;;7.00;7.00;;;;;;;;5034447;28;45818;-81
2023/06/19 12:13:45;;;;;;;;;8.75;7.50;;;;;;;;5034633;28;45784;-80
2023/06/19 12:16:14;;;;;;;;;8.00;7.00;;;;;;;;5038564;28;46116;-78
2023/06/19 12:18:43;;;;;;;;;7.25;7.25;;;;;;;;5032787;28;48193;-82
2023/06/19 12:21:08;;;;;;;;;8.00;8.00;;;;;;;;5035749;28;45486;-80
2023/06/19 12:23:33;;;;;;;;;6.25;6.25;;;;;;;;5037003;28;45637;-80
2023/06/19 12:25:59;;;;;;;;;10.00;8.25;;;;;;;;5038113;28;45524;-80
2023/06/19 12:28:25;;;;;;;;;7.25;7.00;;;;;;;;5043020;28;46387;-83
2023/06/19 12:30:51;;;;;;;;;8.00;8.00;;;;;;;;5039083;28;45918;-81
2023/06/19 12:33:22;;;;;;;;;7.25;6.25;;;;;;;;5042654;28;45703;-81
2023/06/19 12:35:48;;;;;;;;;8.75;8.75;;;;;;;;5046373;28;45412;-81
2023/06/19 12:38:14;;;;;;;;;7.50;6.50;;;;;;;;5056621;28;45682;-79
2023/06/19 12:40:39;;;;;;;;;8.25;7.00;;;;;;;;5035223;28;46367;-80
2023/06/19 12:43:04;;;;;;;;;9.75;8.50;;;;;;;;5060620;28;46080;-79
2023/06/19 12:45:30;;;;;;;;;7.50;5.75;;;;;;;;5044907;28;45575;-81
2023/06/19 12:47:55;;;;;;;;;8.25;7.00;;;;;;;;5042239;28;47095;-79
2023/06/19 12:50:21;;;;;;;;;7.75;7.75;;;;;;;;5055416;28;45983;-79
2023/06/19 12:52:46;;;;;;;;;9.00;7.25;;;;;;;;5060106;28;45499;-79
2023/06/19 12:55:11;;;;;;;;;10.00;8.25;;;;;;;;5041443;28;45734;-81
2023/06/19 12:57:36;;;;;;;;;7.75;7.75;;;;;;;;5050814;28;46812;-81
2023/06/19 13:00:05;;;;;;;;;7.75;7.75;;;;;;;;5041368;28;45634;-79
2023/06/19 13:02:40;;;;;;;;;7.75;6.75;;;;;;;;5043838;28;45402;-82
2023/06/19 13:05:06;;;;;;;;;8.00;6.25;;;;;;;;5056075;28;45301;-80
2023/06/19 13:07:31;;;;;;;;;8.50;7.25;;;;;;;;5048153;28;47514;-79
2023/06/19 13:10:08;;;;;;;;;6.75;6.00;;;;;;;;5035859;28;45469;-86
2023/06/19 13:12:58;;;;;;;;;8.00;6.00;;;;;;;;5055055;28;45955;-84
2023/06/19 13:15:23;;;;;;;;;6.25;5.00;;;;;;;;5051365;28;45748;-83
2023/06/19 13:17:49;;;;;;;;;6.25;6.25;;;;;;;;5046114;28;45377;-81
2023/06/19 13:20:15;;;;;;;;;9.25;8.75;;;;;;;;5055174;28;45752;-85
2023/06/19 13:22:40;;;;;;;;;6.00;6.00;;;;;;;;5052329;28;45635;-84
2023/06/19 13:25:06;;;;;;;;;8.25;8.25;;;;;;;;5058011;28;45545;-86
2023/06/19 13:27:31;;;;;;;;;9.50;8.00;;;;;;;;5043313;28;45971;-83
2023/06/19 13:30:00;;;;;;;;;7.50;5.00;;;;;;;;5041497;28;45513;-87
2023/06/19 13:32:29;;;;;;;;;7.50;6.00;;;;;;;;5058526;28;46015;-83
2023/06/19 13:34:55;;;;;;;;;8.00;8.00;;;;;;;;5055622;28;46227;-83
2023/06/19 13:37:20;;;;;;;;;8.25;8.00;;;;;;;;5055905;28;45599;-84
2023/06/19 13:39:46;;;;;;;;;5.50;5.50;;;;;;;;5053754;28;45364;-82
2023/06/19 13:42:11;;;;;;;;;8.00;7.50;;;;;;;;5042354;28;45926;-83
2023/06/19 13:44:37;;;;;;;;;8.25;7.25;;;;;;;;5040809;28;46647;-84
2023/06/19 13:47:03;;;;;;;;;7.00;7.00;;;;;;;;5043548;28;45908;-86
2023/06/19 13:49:29;;;;;;;;;6.25;6.25;;;;;;;;5039991;28;46488;-83
2023/06/19 13:51:55;;;;;;;;;11.25;9.00;;;;;;;;5057381;28;45461;-84
2023/06/19 13:54:20;;;;;;;;;9.75;7.25;;;;;;;;5047232;28;45836;-83
2023/06/19 13:56:47;;;;;;;;;9.25;7.00;;;;;;;;5050405;28;46183;-85
2023/06/19 13:59:12;;;;;;;;;7.25;7.00;;;;;;;;5054435;28;46043;-85
2023/06/19 14:01:37;;;;;;;;;8.00;7.00;;;;;;;;5052556;28;45748;-85
2023/06/19 14:04:02;;;;;;;;;8.25;7.25;;;;;;;;5042162;28;47186;-84
2023/06/19 14:06:28;;;;;;;;;9.25;5.75;;;;;;;;5059472;28;46724;-85
2023/06/19 14:08:54;;;;;;;;;9.00;8.75;;;;;;;;5038956;28;45446;-84
2023/06/19 14:11:20;;;;;;;;;9.00;9.00;;;;;;;;5041569;28;45944;-83
2023/06/19 14:13:55;;;;;;;;;7.25;7.00;;;;;;;;5064264;28;45505;-85
2023/06/19 14:16:30;;;;;;;;;9.75;9.75;;;;;;;;5057252;28;47313;-86
2023/06/19 14:18:55;;;;;;;;;9.00;7.50;;;;;;;;5071606;28;45384;-84
2023/06/19 14:21:21;;;;;;;;;8.00;8.00;;;;;;;;5071072;28;44835;-83
2023/06/19 14:23:46;;;;;;;;;15.00;12.67;;;;;;;;5056190;28;45357;-82
2023/06/19 14:26:15;;;;;;;;;8.75;8.75;;;;;;;;5060100;28;45403;-80
2023/06/19 14:28:40;;;;;;;;;9.75;8.25;;;;;;;;5050426;28;45885;-84